sensor_id;sensor_type;location;lat;lon;timestamp;P1;durP1;ratioP1;P2;durP2;ratioP2
14121;SDS011;7139;48.114;11.442;2024-03-07T00:00:50;11.87;;;10.67;;
14121;SDS011;7139;48.114;11.442;2024-03-07T00:03:20;11.70;;;10.60;;
14121;SDS011;7139;48.114;11.442;2024-03-07T00:05:49;12.20;;;10.93;;
14121;SDS011;7139;48.114;11.442;2024-03-07T00:08:16;11.47;;;10.27;;
14121;SDS011;7139;48.114;11.442;2024-03-07T00:10:43;13.03;;;11.57;;
14121;SDS011;7139;48.114;11.442;2024-03-07T00:13:11;12.20;;;11.00;;
14121;SDS011;7139;48.114;11.442;2024-03-07T00:15:38;12.30;;;10.93;;
14121;SDS011;7139;48.114;11.442;2024-03-07T00:18:06;16.80;;;12.27;;
14121;SDS011;7139;48.114;11.442;2024-03-07T00:20:36;12.07;;;10.77;;
14121;SDS011;7139;48.114;11.442;2024-03-07T00:23:04;12.60;;;11.30;;
14121;SDS011;7139;48.114;11.442;2024-03-07T00:25:31;12.80;;;11.43;;
14121;SDS011;7139;48.114;11.442;2024-03-07T00:27:58;12.60;;;11.30;;
14121;SDS011;7139;48.114;11.442;2024-03-07T00:30:28;13.20;;;11.77;;
14121;SDS011;7139;48.114;11.442;2024-03-07T00:32:55;12.67;;;10.83;;
14121;SDS011;7139;48.114;11.442;2024-03-07T00:35:22;13.30;;;12.00;;
14121;SDS011;7139;48.114;11.442;2024-03-07T00:37:51;12.83;;;11.53;;
14121;SDS011;7139;48.114;11.442;2024-03-07T00:40:18;13.90;;;12.50;;
14121;SDS011;7139;48.114;11.442;2024-03-07T00:42:45;13.20;;;11.87;;
14121;SDS011;7139;48.114;11.442;2024-03-07T00:45:13;13.57;;;12.20;;
14121;SDS011;7139;48.114;11.442;2024-03-07T00:47:40;14.20;;;12.60;;
14121;SDS011;7139;48.114;11.442;2024-03-07T00:50:07;13.43;;;12.03;;
14121;SDS011;7139;48.114;11.442;2024-03-07T00:52:35;14.77;;;13.17;;
14121;SDS011;7139;48.114;11.442;2024-03-07T00:55:03;17.50;;;13.37;;
14121;SDS011;7139;48.114;11.442;2024-03-07T00:57:33;15.90;;;13.83;;
14121;SDS011;7139;48.114;11.442;2024-03-07T01:00:00;14.90;;;13.30;;
14121;SDS011;7139;48.114;11.442;2024-03-07T01:02:27;16.10;;;13.30;;
14121;SDS011;7139;48.114;11.442;2024-03-07T01:04:54;14.47;;;12.63;;
14121;SDS011;7139;48.114;11.442;2024-03-07T01:07:22;15.97;;;13.77;;
14121;SDS011;7139;48.114;11.442;2024-03-07T01:09:49;14.50;;;13.00;;
14121;SDS011;7139;48.114;11.442;2024-03-07T01:12:17;16.30;;;13.57;;
14121;SDS011;7139;48.114;11.442;2024-03-07T01:14:47;17.67;;;13.93;;
14121;SDS011;7139;48.114;11.442;2024-03-07T01:17:14;17.83;;;13.73;;
14121;SDS011;7139;48.114;11.442;2024-03-07T01:19:41;16.37;;;13.97;;
14121;SDS011;7139;48.114;11.442;2024-03-07T01:22:08;17.63;;;14.47;;
14121;SDS011;7139;48.114;11.442;2024-03-07T01:24:35;16.57;;;14.00;;
14121;SDS011;7139;48.114;11.442;2024-03-07T01:27:04;17.50;;;14.63;;
14121;SDS011;7139;48.114;11.442;2024-03-07T01:29:32;18.30;;;14.67;;
14121;SDS011;7139;48.114;11.442;2024-03-07T01:31:59;18.17;;;14.60;;
14121;SDS011;7139;48.114;11.442;2024-03-07T01:34:28;18.30;;;14.50;;
14121;SDS011;7139;48.114;11.442;2024-03-07T01:36:55;18.93;;;15.30;;
14121;SDS011;7139;48.114;11.442;2024-03-07T01:39:22;18.07;;;15.03;;
14121;SDS011;7139;48.114;11.442;2024-03-07T01:41:49;20.00;;;15.10;;
14121;SDS011;7139;48.114;11.442;2024-03-07T01:44:16;18.37;;;15.27;;
14121;SDS011;7139;48.114;11.442;2024-03-07T01:46:45;18.43;;;15.67;;
14121;SDS011;7139;48.114;11.442;2024-03-07T01:49:12;19.30;;;15.73;;
14121;SDS011;7139;48.114;11.442;2024-03-07T01:51:39;20.17;;;16.20;;
14121;SDS011;7139;48.114;11.442;2024-03-07T01:54:06;19.50;;;15.80;;
14121;SDS011;7139;48.114;11.442;2024-03-07T01:56:34;19.77;;;16.13;;
14121;SDS011;7139;48.114;11.442;2024-03-07T01:59:03;22.30;;;16.97;;
14121;SDS011;7139;48.114;11.442;2024-03-07T02:01:30;24.27;;;16.97;;
14121;SDS011;7139;48.114;11.442;2024-03-07T02:03:59;22.17;;;16.57;;
14121;SDS011;7139;48.114;11.442;2024-03-07T02:06:26;20.90;;;16.80;;
14121;SDS011;7139;48.114;11.442;2024-03-07T02:08:53;20.23;;;16.53;;
14121;SDS011;7139;48.114;11.442;2024-03-07T02:11:20;21.23;;;16.90;;
14121;SDS011;7139;48.114;11.442;2024-03-07T02:13:48;22.97;;;19.23;;
14121;SDS011;7139;48.114;11.442;2024-03-07T02:16:16;21.60;;;17.67;;
14121;SDS011;7139;48.114;11.442;2024-03-07T02:18:43;19.97;;;16.90;;
14121;SDS011;7139;48.114;11.442;2024-03-07T02:21:12;22.47;;;17.63;;
14121;SDS011;7139;48.114;11.442;2024-03-07T02:23:39;22.43;;;17.63;;
14121;SDS011;7139;48.114;11.442;2024-03-07T02:26:07;22.83;;;17.47;;
14121;SDS011;7139;48.114;11.442;2024-03-07T02:28:34;23.23;;;18.37;;
14121;SDS011;7139;48.114;11.442;2024-03-07T02:31:01;25.13;;;18.57;;
14121;SDS011;7139;48.114;11.442;2024-03-07T02:33:28;22.30;;;17.63;;
14121;SDS011;7139;48.114;11.442;2024-03-07T02:35:57;21.17;;;17.63;;
14121;SDS011;7139;48.114;11.442;2024-03-07T02:38:25;23.17;;;18.43;;
14121;SDS011;7139;48.114;11.442;2024-03-07T02:40:52;21.13;;;17.63;;
14121;SDS011;7139;48.114;11.442;2024-03-07T02:43:19;23.50;;;18.70;;
14121;SDS011;7139;48.114;11.442;2024-03-07T02:45:47;24.63;;;18.43;;
14121;SDS011;7139;48.114;11.442;2024-03-07T02:48:15;23.27;;;18.30;;
14121;SDS011;7139;48.114;11.442;2024-03-07T02:50:43;22.00;;;17.90;;
14121;SDS011;7139;48.114;11.442;2024-03-07T02:53:10;24.57;;;18.30;;
14121;SDS011;7139;48.114;11.442;2024-03-07T02:55:39;23.00;;;17.93;;
14121;SDS011;7139;48.114;11.442;2024-03-07T02:58:06;23.73;;;18.47;;
14121;SDS011;7139;48.114;11.442;2024-03-07T03:00:33;26.00;;;20.10;;
14121;SDS011;7139;48.114;11.442;2024-03-07T03:03:01;24.30;;;19.40;;
14121;SDS011;7139;48.114;11.442;2024-03-07T03:05:28;23.90;;;20.03;;
14121;SDS011;7139;48.114;11.442;2024-03-07T03:07:55;24.47;;;19.27;;
14121;SDS011;7139;48.114;11.442;2024-03-07T03:10:23;24.20;;;19.43;;
14121;SDS011;7139;48.114;11.442;2024-03-07T03:12:52;26.77;;;20.17;;
14121;SDS011;7139;48.114;11.442;2024-03-07T03:15:21;25.13;;;20.20;;
14121;SDS011;7139;48.114;11.442;2024-03-07T03:17:48;26.47;;;19.83;;
14121;SDS011;7139;48.114;11.442;2024-03-07T03:20:15;27.00;;;20.13;;
14121;SDS011;7139;48.114;11.442;2024-03-07T03:22:50;28.60;;;21.47;;
14121;SDS011;7139;48.114;11.442;2024-03-07T03:25:18;25.13;;;19.83;;
14121;SDS011;7139;48.114;11.442;2024-03-07T03:27:45;27.43;;;20.63;;
14121;SDS011;7139;48.114;11.442;2024-03-07T03:30:15;25.40;;;20.50;;
14121;SDS011;7139;48.114;11.442;2024-03-07T03:32:43;24.67;;;20.13;;
14121;SDS011;7139;48.114;11.442;2024-03-07T03:35:11;26.50;;;20.23;;
14121;SDS011;7139;48.114;11.442;2024-03-07T03:37:39;28.63;;;21.50;;
14121;SDS011;7139;48.114;11.442;2024-03-07T03:40:07;28.67;;;22.13;;
14121;SDS011;7139;48.114;11.442;2024-03-07T03:42:35;26.87;;;21.27;;
14121;SDS011;7139;48.114;11.442;2024-03-07T03:45:03;33.03;;;24.03;;
14121;SDS011;7139;48.114;11.442;2024-03-07T03:47:33;30.40;;;23.27;;
14121;SDS011;7139;48.114;11.442;2024-03-07T03:50:02;31.83;;;24.17;;
14121;SDS011;7139;48.114;11.442;2024-03-07T03:52:29;32.93;;;24.83;;
14121;SDS011;7139;48.114;11.442;2024-03-07T03:54:56;31.97;;;24.53;;
14121;SDS011;7139;48.114;11.442;2024-03-07T03:57:24;33.13;;;25.37;;
14121;SDS011;7139;48.114;11.442;2024-03-07T03:59:51;33.33;;;24.67;;
14121;SDS011;7139;48.114;11.442;2024-03-07T04:02:18;33.33;;;25.77;;
14121;SDS011;7139;48.114;11.442;2024-03-07T04:04:46;32.33;;;25.10;;
14121;SDS011;7139;48.114;11.442;2024-03-07T04:07:13;31.53;;;25.63;;
14121;SDS011;7139;48.114;11.442;2024-03-07T04:09:41;36.33;;;26.43;;
14121;SDS011;7139;48.114;11.442;2024-03-07T04:12:09;33.50;;;25.97;;
14121;SDS011;7139;48.114;11.442;2024-03-07T04:14:36;33.57;;;25.37;;
14121;SDS011;7139;48.114;11.442;2024-03-07T04:17:04;34.60;;;25.50;;
14121;SDS011;7139;48.114;11.442;2024-03-07T04:19:32;30.97;;;24.40;;
14121;SDS011;7139;48.114;11.442;2024-03-07T04:22:00;34.03;;;26.50;;
14121;SDS011;7139;48.114;11.442;2024-03-07T04:24:28;36.87;;;26.00;;
14121;SDS011;7139;48.114;11.442;2024-03-07T04:26:57;37.50;;;27.60;;
14121;SDS011;7139;48.114;11.442;2024-03-07T04:29:24;38.87;;;28.60;;
14121;SDS011;7139;48.114;11.442;2024-03-07T04:31:51;39.60;;;29.07;;
14121;SDS011;7139;48.114;11.442;2024-03-07T04:34:19;38.80;;;28.57;;
14121;SDS011;7139;48.114;11.442;2024-03-07T04:36:46;38.43;;;28.43;;
14121;SDS011;7139;48.114;11.442;2024-03-07T04:39:15;43.53;;;31.33;;
14121;SDS011;7139;48.114;11.442;2024-03-07T04:41:50;39.53;;;30.13;;
14121;SDS011;7139;48.114;11.442;2024-03-07T04:44:18;38.10;;;29.37;;
14121;SDS011;7139;48.114;11.442;2024-03-07T04:46:47;37.20;;;28.97;;
14121;SDS011;7139;48.114;11.442;2024-03-07T04:49:14;38.60;;;29.43;;
14121;SDS011;7139;48.114;11.442;2024-03-07T04:51:41;39.20;;;29.17;;
14121;SDS011;7139;48.114;11.442;2024-03-07T04:54:08;41.63;;;30.90;;
14121;SDS011;7139;48.114;11.442;2024-03-07T04:56:37;36.30;;;29.17;;
14121;SDS011;7139;48.114;11.442;2024-03-07T04:59:04;38.83;;;29.17;;
14121;SDS011;7139;48.114;11.442;2024-03-07T05:01:31;40.43;;;31.27;;
14121;SDS011;7139;48.114;11.442;2024-03-07T05:03:58;41.80;;;31.47;;
14121;SDS011;7139;48.114;11.442;2024-03-07T05:06:25;43.43;;;31.63;;
14121;SDS011;7139;48.114;11.442;2024-03-07T05:08:54;40.30;;;31.60;;
14121;SDS011;7139;48.114;11.442;2024-03-07T05:11:21;41.80;;;31.17;;
14121;SDS011;7139;48.114;11.442;2024-03-07T05:13:49;46.00;;;31.77;;
14121;SDS011;7139;48.114;11.442;2024-03-07T05:16:17;42.07;;;31.20;;
14121;SDS011;7139;48.114;11.442;2024-03-07T05:18:44;41.17;;;29.87;;
14121;SDS011;7139;48.114;11.442;2024-03-07T05:21:12;39.30;;;30.90;;
14121;SDS011;7139;48.114;11.442;2024-03-07T05:23:59;40.20;;;29.87;;
14121;SDS011;7139;48.114;11.442;2024-03-07T05:26:26;39.43;;;30.13;;
14121;SDS011;7139;48.114;11.442;2024-03-07T05:28:56;40.90;;;31.20;;
14121;SDS011;7139;48.114;11.442;2024-03-07T05:31:23;41.83;;;31.63;;
14121;SDS011;7139;48.114;11.442;2024-03-07T05:33:51;40.47;;;29.50;;
14121;SDS011;7139;48.114;11.442;2024-03-07T05:36:18;39.53;;;30.37;;
14121;SDS011;7139;48.114;11.442;2024-03-07T05:38:45;41.37;;;31.30;;
14121;SDS011;7139;48.114;11.442;2024-03-07T05:41:12;41.53;;;30.17;;
14121;SDS011;7139;48.114;11.442;2024-03-07T05:43:39;42.67;;;32.70;;
14121;SDS011;7139;48.114;11.442;2024-03-07T05:46:08;42.50;;;32.63;;
14121;SDS011;7139;48.114;11.442;2024-03-07T05:48:36;41.63;;;29.80;;
14121;SDS011;7139;48.114;11.442;2024-03-07T05:51:03;45.07;;;32.37;;
14121;SDS011;7139;48.114;11.442;2024-03-07T05:53:32;39.70;;;30.63;;
14121;SDS011;7139;48.114;11.442;2024-03-07T05:56:00;43.07;;;31.50;;
14121;SDS011;7139;48.114;11.442;2024-03-07T05:58:28;39.83;;;31.47;;
14121;SDS011;7139;48.114;11.442;2024-03-07T06:00:55;42.17;;;32.03;;
14121;SDS011;7139;48.114;11.442;2024-03-07T06:03:23;43.07;;;32.07;;
14121;SDS011;7139;48.114;11.442;2024-03-07T06:05:51;46.37;;;33.30;;
14121;SDS011;7139;48.114;11.442;2024-03-07T06:08:19;45.43;;;33.30;;
14121;SDS011;7139;48.114;11.442;2024-03-07T06:10:46;47.30;;;33.87;;
14121;SDS011;7139;48.114;11.442;2024-03-07T06:13:15;47.20;;;33.53;;
14121;SDS011;7139;48.114;11.442;2024-03-07T06:15:43;44.93;;;32.97;;
14121;SDS011;7139;48.114;11.442;2024-03-07T06:18:10;46.70;;;34.53;;
14121;SDS011;7139;48.114;11.442;2024-03-07T06:20:40;45.13;;;33.90;;
14121;SDS011;7139;48.114;11.442;2024-03-07T06:23:07;44.57;;;32.83;;
14121;SDS011;7139;48.114;11.442;2024-03-07T06:25:35;46.27;;;33.40;;
14121;SDS011;7139;48.114;11.442;2024-03-07T06:28:03;44.30;;;32.40;;
14121;SDS011;7139;48.114;11.442;2024-03-07T06:30:36;43.77;;;32.57;;
14121;SDS011;7139;48.114;11.442;2024-03-07T06:33:03;43.50;;;32.37;;
14121;SDS011;7139;48.114;11.442;2024-03-07T06:35:30;43.47;;;32.63;;
14121;SDS011;7139;48.114;11.442;2024-03-07T06:37:58;47.43;;;34.63;;
14121;SDS011;7139;48.114;11.442;2024-03-07T06:40:26;46.07;;;34.27;;
14121;SDS011;7139;48.114;11.442;2024-03-07T06:42:53;44.33;;;34.47;;
14121;SDS011;7139;48.114;11.442;2024-03-07T06:45:20;45.17;;;34.17;;
14121;SDS011;7139;48.114;11.442;2024-03-07T06:47:49;42.60;;;32.10;;
14121;SDS011;7139;48.114;11.442;2024-03-07T06:50:17;46.07;;;33.97;;
14121;SDS011;7139;48.114;11.442;2024-03-07T06:52:46;45.23;;;33.70;;
14121;SDS011;7139;48.114;11.442;2024-03-07T06:55:15;42.67;;;31.63;;
14121;SDS011;7139;48.114;11.442;2024-03-07T06:57:43;48.07;;;34.23;;
14121;SDS011;7139;48.114;11.442;2024-03-07T07:00:11;45.60;;;33.43;;
14121;SDS011;7139;48.114;11.442;2024-03-07T07:02:39;41.37;;;32.53;;
14121;SDS011;7139;48.114;11.442;2024-03-07T07:05:07;43.80;;;33.33;;
14121;SDS011;7139;48.114;11.442;2024-03-07T07:07:37;43.77;;;33.53;;
14121;SDS011;7139;48.114;11.442;2024-03-07T07:10:04;47.23;;;34.47;;
14121;SDS011;7139;48.114;11.442;2024-03-07T07:12:36;48.30;;;34.70;;
14121;SDS011;7139;48.114;11.442;2024-03-07T07:15:03;47.47;;;34.83;;
14121;SDS011;7139;48.114;11.442;2024-03-07T07:17:30;50.13;;;34.70;;
14121;SDS011;7139;48.114;11.442;2024-03-07T07:19:58;46.87;;;33.53;;
14121;SDS011;7139;48.114;11.442;2024-03-07T07:22:25;43.63;;;33.33;;
14121;SDS011;7139;48.114;11.442;2024-03-07T07:24:52;48.73;;;35.83;;
14121;SDS011;7139;48.114;11.442;2024-03-07T07:27:20;46.47;;;34.70;;
14121;SDS011;7139;48.114;11.442;2024-03-07T07:29:48;46.93;;;34.43;;
14121;SDS011;7139;48.114;11.442;2024-03-07T07:32:15;47.63;;;35.13;;
14121;SDS011;7139;48.114;11.442;2024-03-07T07:34:42;50.97;;;35.77;;
14121;SDS011;7139;48.114;11.442;2024-03-07T07:37:09;48.67;;;34.77;;
14121;SDS011;7139;48.114;11.442;2024-03-07T07:39:37;48.30;;;34.83;;
14121;SDS011;7139;48.114;11.442;2024-03-07T07:42:04;46.50;;;35.77;;
14121;SDS011;7139;48.114;11.442;2024-03-07T07:44:31;48.30;;;34.97;;
14121;SDS011;7139;48.114;11.442;2024-03-07T07:47:00;50.03;;;35.47;;
14121;SDS011;7139;48.114;11.442;2024-03-07T07:49:27;51.47;;;36.03;;
14121;SDS011;7139;48.114;11.442;2024-03-07T07:51:54;49.90;;;35.47;;
14121;SDS011;7139;48.114;11.442;2024-03-07T07:54:21;50.33;;;35.83;;
14121;SDS011;7139;48.114;11.442;2024-03-07T07:56:49;50.90;;;35.67;;
14121;SDS011;7139;48.114;11.442;2024-03-07T07:59:17;45.17;;;33.97;;
14121;SDS011;7139;48.114;11.442;2024-03-07T08:01:44;54.20;;;35.37;;
14121;SDS011;7139;48.114;11.442;2024-03-07T08:04:12;48.73;;;36.27;;
14121;SDS011;7139;48.114;11.442;2024-03-07T08:06:40;51.90;;;35.30;;
14121;SDS011;7139;48.114;11.442;2024-03-07T08:09:08;45.83;;;34.27;;
14121;SDS011;7139;48.114;11.442;2024-03-07T08:11:35;48.13;;;33.97;;
14121;SDS011;7139;48.114;11.442;2024-03-07T08:14:03;48.43;;;35.17;;
14121;SDS011;7139;48.114;11.442;2024-03-07T08:16:31;47.73;;;36.13;;
14121;SDS011;7139;48.114;11.442;2024-03-07T08:18:58;55.03;;;35.67;;
14121;SDS011;7139;48.114;11.442;2024-03-07T08:21:27;49.63;;;36.67;;
14121;SDS011;7139;48.114;11.442;2024-03-07T08:23:54;45.67;;;35.07;;
14121;SDS011;7139;48.114;11.442;2024-03-07T08:26:23;52.30;;;36.20;;
14121;SDS011;7139;48.114;11.442;2024-03-07T08:28:50;48.20;;;36.43;;
14121;SDS011;7139;48.114;11.442;2024-03-07T08:31:17;51.13;;;35.47;;
14121;SDS011;7139;48.114;11.442;2024-03-07T08:33:44;50.17;;;35.80;;
14121;SDS011;7139;48.114;11.442;2024-03-07T08:36:11;48.33;;;34.70;;
14121;SDS011;7139;48.114;11.442;2024-03-07T08:38:40;47.10;;;35.40;;
14121;SDS011;7139;48.114;11.442;2024-03-07T08:41:08;51.93;;;35.97;;
14121;SDS011;7139;48.114;11.442;2024-03-07T08:43:36;49.80;;;35.93;;
14121;SDS011;7139;48.114;11.442;2024-03-07T08:46:03;46.67;;;34.93;;
14121;SDS011;7139;48.114;11.442;2024-03-07T08:48:30;49.10;;;36.03;;
14121;SDS011;7139;48.114;11.442;2024-03-07T08:50:58;53.00;;;36.80;;
14121;SDS011;7139;48.114;11.442;2024-03-07T08:53:25;48.60;;;35.43;;
14121;SDS011;7139;48.114;11.442;2024-03-07T08:55:54;47.23;;;35.70;;
14121;SDS011;7139;48.114;11.442;2024-03-07T08:58:23;47.63;;;35.37;;
14121;SDS011;7139;48.114;11.442;2024-03-07T09:00:50;48.10;;;34.70;;
14121;SDS011;7139;48.114;11.442;2024-03-07T09:03:17;46.30;;;34.17;;
14121;SDS011;7139;48.114;11.442;2024-03-07T09:05:46;46.97;;;35.80;;
14121;SDS011;7139;48.114;11.442;2024-03-07T09:08:15;47.90;;;34.17;;
14121;SDS011;7139;48.114;11.442;2024-03-07T09:10:42;44.00;;;34.37;;
14121;SDS011;7139;48.114;11.442;2024-03-07T09:13:11;48.57;;;35.73;;
14121;SDS011;7139;48.114;11.442;2024-03-07T09:15:39;45.37;;;35.00;;
14121;SDS011;7139;48.114;11.442;2024-03-07T09:18:06;45.27;;;35.97;;
14121;SDS011;7139;48.114;11.442;2024-03-07T09:20:33;49.20;;;35.90;;
14121;SDS011;7139;48.114;11.442;2024-03-07T09:23:01;52.50;;;35.50;;
14121;SDS011;7139;48.114;11.442;2024-03-07T09:25:29;51.50;;;36.97;;
14121;SDS011;7139;48.114;11.442;2024-03-07T09:27:58;49.17;;;35.70;;
14121;SDS011;7139;48.114;11.442;2024-03-07T09:30:27;46.37;;;35.50;;
14121;SDS011;7139;48.114;11.442;2024-03-07T09:32:55;47.50;;;36.23;;
14121;SDS011;7139;48.114;11.442;2024-03-07T09:35:22;50.60;;;38.10;;
14121;SDS011;7139;48.114;11.442;2024-03-07T09:37:49;51.37;;;37.33;;
14121;SDS011;7139;48.114;11.442;2024-03-07T09:40:16;58.17;;;37.97;;
14121;SDS011;7139;48.114;11.442;2024-03-07T09:42:49;55.43;;;37.70;;
14121;SDS011;7139;48.114;11.442;2024-03-07T09:45:18;51.50;;;37.40;;
14121;SDS011;7139;48.114;11.442;2024-03-07T09:47:47;53.77;;;37.20;;
14121;SDS011;7139;48.114;11.442;2024-03-07T09:50:16;53.23;;;38.50;;
14121;SDS011;7139;48.114;11.442;2024-03-07T09:52:44;47.00;;;35.83;;
14121;SDS011;7139;48.114;11.442;2024-03-07T09:55:14;51.33;;;36.77;;
14121;SDS011;7139;48.114;11.442;2024-03-07T09:57:42;49.60;;;36.70;;
14121;SDS011;7139;48.114;11.442;2024-03-07T10:00:10;50.17;;;36.47;;
14121;SDS011;7139;48.114;11.442;2024-03-07T10:02:48;51.30;;;36.70;;
14121;SDS011;7139;48.114;11.442;2024-03-07T10:05:16;49.13;;;35.97;;
14121;SDS011;7139;48.114;11.442;2024-03-07T10:07:44;48.07;;;35.97;;
14121;SDS011;7139;48.114;11.442;2024-03-07T10:10:11;48.43;;;36.30;;
14121;SDS011;7139;48.114;11.442;2024-03-07T10:12:38;45.47;;;35.57;;
14121;SDS011;7139;48.114;11.442;2024-03-07T10:15:06;45.60;;;34.37;;
14121;SDS011;7139;48.114;11.442;2024-03-07T10:17:37;42.33;;;33.50;;
14121;SDS011;7139;48.114;11.442;2024-03-07T10:20:07;42.63;;;33.07;;
14121;SDS011;7139;48.114;11.442;2024-03-07T10:22:38;47.60;;;33.20;;
14121;SDS011;7139;48.114;11.442;2024-03-07T10:25:06;44.80;;;30.87;;
14121;SDS011;7139;48.114;11.442;2024-03-07T10:27:35;46.27;;;32.53;;
14121;SDS011;7139;48.114;11.442;2024-03-07T10:30:03;41.63;;;31.43;;
14121;SDS011;7139;48.114;11.442;2024-03-07T10:32:32;42.27;;;30.57;;
14121;SDS011;7139;48.114;11.442;2024-03-07T10:35:01;41.00;;;30.77;;
14121;SDS011;7139;48.114;11.442;2024-03-07T10:37:34;39.07;;;29.97;;
14121;SDS011;7139;48.114;11.442;2024-03-07T10:40:01;40.27;;;29.80;;
14121;SDS011;7139;48.114;11.442;2024-03-07T10:42:40;37.23;;;29.47;;
14121;SDS011;7139;48.114;11.442;2024-03-07T10:45:10;36.33;;;29.17;;
14121;SDS011;7139;48.114;11.442;2024-03-07T10:47:38;34.63;;;28.33;;
14121;SDS011;7139;48.114;11.442;2024-03-07T10:50:08;37.67;;;29.27;;
14121;SDS011;7139;48.114;11.442;2024-03-07T10:52:42;36.13;;;28.97;;
14121;SDS011;7139;48.114;11.442;2024-03-07T10:55:15;38.87;;;29.50;;
14121;SDS011;7139;48.114;11.442;2024-03-07T10:57:49;38.97;;;29.07;;
14121;SDS011;7139;48.114;11.442;2024-03-07T11:00:18;38.23;;;29.57;;
14121;SDS011;7139;48.114;11.442;2024-03-07T11:03:00;41.53;;;29.67;;
14121;SDS011;7139;48.114;11.442;2024-03-07T11:05:32;35.17;;;27.67;;
14121;SDS011;7139;48.114;11.442;2024-03-07T11:08:01;33.93;;;27.13;;
14121;SDS011;7139;48.114;11.442;2024-03-07T11:10:32;37.87;;;28.37;;
14121;SDS011;7139;48.114;11.442;2024-03-07T11:13:00;37.07;;;29.17;;
14121;SDS011;7139;48.114;11.442;2024-03-07T11:15:27;38.37;;;28.87;;
14121;SDS011;7139;48.114;11.442;2024-03-07T11:17:55;37.10;;;28.73;;
14121;SDS011;7139;48.114;11.442;2024-03-07T11:20:25;34.47;;;27.00;;
14121;SDS011;7139;48.114;11.442;2024-03-07T11:22:53;44.53;;;27.50;;
14121;SDS011;7139;48.114;11.442;2024-03-07T11:25:22;35.07;;;26.60;;
14121;SDS011;7139;48.114;11.442;2024-03-07T11:27:51;35.40;;;27.00;;
14121;SDS011;7139;48.114;11.442;2024-03-07T11:30:20;34.73;;;26.90;;
14121;SDS011;7139;48.114;11.442;2024-03-07T11:33:01;32.50;;;26.57;;
14121;SDS011;7139;48.114;11.442;2024-03-07T11:35:32;33.97;;;26.07;;
14121;SDS011;7139;48.114;11.442;2024-03-07T11:38:00;33.03;;;25.93;;
14121;SDS011;7139;48.114;11.442;2024-03-07T11:40:46;34.33;;;26.93;;
14121;SDS011;7139;48.114;11.442;2024-03-07T11:43:15;38.00;;;27.47;;
14121;SDS011;7139;48.114;11.442;2024-03-07T11:45:42;34.97;;;26.57;;
14121;SDS011;7139;48.114;11.442;2024-03-07T11:48:17;33.00;;;26.73;;
14121;SDS011;7139;48.114;11.442;2024-03-07T11:50:46;39.37;;;27.03;;
14121;SDS011;7139;48.114;11.442;2024-03-07T11:53:14;33.63;;;25.50;;
14121;SDS011;7139;48.114;11.442;2024-03-07T11:55:42;31.93;;;25.53;;
14121;SDS011;7139;48.114;11.442;2024-03-07T11:58:12;31.40;;;25.00;;
14121;SDS011;7139;48.114;11.442;2024-03-07T12:00:41;31.87;;;25.70;;
14121;SDS011;7139;48.114;11.442;2024-03-07T12:03:10;35.23;;;25.33;;
14121;SDS011;7139;48.114;11.442;2024-03-07T12:05:38;31.47;;;23.97;;
14121;SDS011;7139;48.114;11.442;2024-03-07T12:08:06;29.47;;;23.60;;
14121;SDS011;7139;48.114;11.442;2024-03-07T12:10:35;36.10;;;25.73;;
14121;SDS011;7139;48.114;11.442;2024-03-07T12:13:03;31.87;;;25.17;;
14121;SDS011;7139;48.114;11.442;2024-03-07T12:15:32;30.10;;;24.83;;
14121;SDS011;7139;48.114;11.442;2024-03-07T12:18:00;30.63;;;23.87;;
14121;SDS011;7139;48.114;11.442;2024-03-07T12:20:28;28.07;;;24.30;;
14121;SDS011;7139;48.114;11.442;2024-03-07T12:22:58;28.73;;;23.53;;
14121;SDS011;7139;48.114;11.442;2024-03-07T12:25:27;29.30;;;23.23;;
14121;SDS011;7139;48.114;11.442;2024-03-07T12:27:59;27.13;;;22.03;;
14121;SDS011;7139;48.114;11.442;2024-03-07T12:30:28;29.97;;;24.50;;
14121;SDS011;7139;48.114;11.442;2024-03-07T12:32:59;28.30;;;24.00;;
14121;SDS011;7139;48.114;11.442;2024-03-07T12:35:27;27.97;;;22.80;;
14121;SDS011;7139;48.114;11.442;2024-03-07T12:37:54;29.87;;;22.53;;
14121;SDS011;7139;48.114;11.442;2024-03-07T12:40:21;27.43;;;22.73;;
14121;SDS011;7139;48.114;11.442;2024-03-07T12:42:50;28.50;;;22.67;;
14121;SDS011;7139;48.114;11.442;2024-03-07T12:45:19;27.33;;;22.40;;
14121;SDS011;7139;48.114;11.442;2024-03-07T12:47:46;28.67;;;23.13;;
14121;SDS011;7139;48.114;11.442;2024-03-07T12:50:17;29.90;;;22.90;;
14121;SDS011;7139;48.114;11.442;2024-03-07T12:52:45;29.97;;;23.33;;
14121;SDS011;7139;48.114;11.442;2024-03-07T12:55:14;27.53;;;22.43;;
14121;SDS011;7139;48.114;11.442;2024-03-07T12:57:46;28.63;;;22.43;;
14121;SDS011;7139;48.114;11.442;2024-03-07T13:00:15;29.30;;;24.10;;
14121;SDS011;7139;48.114;11.442;2024-03-07T13:02:46;29.10;;;22.70;;
14121;SDS011;7139;48.114;11.442;2024-03-07T13:05:13;31.17;;;22.63;;
14121;SDS011;7139;48.114;11.442;2024-03-07T13:07:48;28.73;;;23.60;;
14121;SDS011;7139;48.114;11.442;2024-03-07T13:10:15;30.63;;;23.57;;
14121;SDS011;7139;48.114;11.442;2024-03-07T13:12:44;31.20;;;23.80;;
14121;SDS011;7139;48.114;11.442;2024-03-07T13:15:14;34.07;;;24.73;;
14121;SDS011;7139;48.114;11.442;2024-03-07T13:17:41;35.63;;;24.37;;
14121;SDS011;7139;48.114;11.442;2024-03-07T13:20:10;32.80;;;24.73;;
14121;SDS011;7139;48.114;11.442;2024-03-07T13:22:39;29.03;;;23.37;;
14121;SDS011;7139;48.114;11.442;2024-03-07T13:25:09;30.60;;;24.00;;
14121;SDS011;7139;48.114;11.442;2024-03-07T13:27:41;31.17;;;23.37;;
14121;SDS011;7139;48.114;11.442;2024-03-07T13:30:09;31.10;;;23.67;;
14121;SDS011;7139;48.114;11.442;2024-03-07T13:32:47;34.47;;;25.13;;
14121;SDS011;7139;48.114;11.442;2024-03-07T13:35:15;34.37;;;24.63;;
14121;SDS011;7139;48.114;11.442;2024-03-07T13:37:45;31.17;;;24.10;;
14121;SDS011;7139;48.114;11.442;2024-03-07T13:40:14;31.87;;;24.30;;
14121;SDS011;7139;48.114;11.442;2024-03-07T13:42:51;29.17;;;23.63;;
14121;SDS011;7139;48.114;11.442;2024-03-07T13:45:19;29.13;;;22.43;;
14121;SDS011;7139;48.114;11.442;2024-03-07T13:47:47;37.63;;;24.07;;
14121;SDS011;7139;48.114;11.442;2024-03-07T13:50:15;30.77;;;23.37;;
14121;SDS011;7139;48.114;11.442;2024-03-07T13:52:44;33.07;;;23.90;;
14121;SDS011;7139;48.114;11.442;2024-03-07T13:55:31;32.03;;;24.33;;
14121;SDS011;7139;48.114;11.442;2024-03-07T13:57:58;31.60;;;24.07;;
14121;SDS011;7139;48.114;11.442;2024-03-07T14:00:31;31.00;;;23.87;;
14121;SDS011;7139;48.114;11.442;2024-03-07T14:05:58;32.70;;;23.83;;
14121;SDS011;7139;48.114;11.442;2024-03-07T14:08:46;29.90;;;23.10;;
14121;SDS011;7139;48.114;11.442;2024-03-07T14:14:16;28.17;;;21.83;;
14121;SDS011;7139;48.114;11.442;2024-03-07T14:16:56;25.10;;;20.70;;
14121;SDS011;7139;48.114;11.442;2024-03-07T14:19:43;30.43;;;21.37;;
14121;SDS011;7139;48.114;11.442;2024-03-07T14:22:24;27.87;;;20.10;;
14121;SDS011;7139;48.114;11.442;2024-03-07T14:25:17;26.43;;;21.13;;
14121;SDS011;7139;48.114;11.442;2024-03-07T14:27:50;25.83;;;20.80;;
14121;SDS011;7139;48.114;11.442;2024-03-07T14:30:23;24.73;;;19.27;;
14121;SDS011;7139;48.114;11.442;2024-03-07T14:32:54;27.80;;;20.80;;
14121;SDS011;7139;48.114;11.442;2024-03-07T14:35:22;25.47;;;19.63;;